Airfield :
LOGIN :

Register | Disclaimer

   EN    FR    IT 

 










Legend :    VFR   Marginal VFR   IFR   Intensive IFR   Very Intensive IFR
Visi :
Ceiling :
>= 8 km
>= 3000ft
5 to 8 km
1000 to 3000 ft
1500m to 5 km
500 to 1000 ft
800 to 1500m
200 to 500 ft
< 800m
< 200 ft
Symbols :   Thunderstorms  Fog  Heavy snow  Heavy precipitations  Wind > 20 kt
SIGMETs :     Misc.  Thunderstorms  Icing  Turbulence  Mountain Waves  Volcanic Ashes






- Airport Elevation : 151 ft
- IATA code : LSZ


LDLO - Lošinj Island

CURRENT METAR :
  • 290900Z 02014KT 9999 -RA BKN050 16/12 Q1006

EXPIRED METARs :
  • 290830Z 02010KT 9999 -RA BKN050 16/12 Q1006
  • 290800Z 36008KT 9999 -RA BKN050 16/13 Q1006
  • 290730Z 01010KT 9999 -RA BKN050 16/12 Q1006
  • 290700Z 02011KT 9999 BKN050 17/11 Q1005
  • 290630Z 01014KT 9999 BKN050 17/11 Q1005

TAF TAF LDLO
Valid from the 29 at 06:00 until the 30 at 06:00 UTC


290525Z 2906/3006 02006KT 9999 SCT040 TX20/2913Z TN15/3004Z
TEMPO 2906/2908 02012KT
TEMPO 2906/2914 RA



MET'MAP, your aeronautical weather chart ! - Copyright ORBIFLY December 2007 - Disclaimer

ORBIFLY MET'MAP TEAM :

Programming & Development : Alexandra Zaïnal
Original concept : Baudouin d'Aumeries
Technical & hardware support : Manuel Goepfert
Assistance : Marc-Olivier Méhu

Contact : metmap@orbifly.com




SOURCES & CREDITS :

   NOAA